createdAt,value
2022-12-19T00:04:09.638Z,99845.81
2022-12-19T00:14:11.413Z,99846.13
2022-12-19T00:24:21.111Z,99809.91
2022-12-19T00:34:23.816Z,99806.94
2022-12-19T00:44:25.217Z,99802.25
2022-12-19T00:54:26.886Z,99788.91
2022-12-19T01:04:29.740Z,99761.84
2022-12-19T01:14:32.417Z,99792.41
2022-12-19T01:24:33.885Z,99801.13
2022-12-19T01:34:35.402Z,99768.72
2022-12-19T01:44:36.965Z,99758.03
2022-12-19T01:54:39.232Z,99762.19
2022-12-19T02:04:43.948Z,99739.81
2022-12-19T02:14:45.497Z,99726.63
2022-12-19T02:25:17.273Z,99703.22
2022-12-19T02:35:37.367Z,99678.81
2022-12-19T02:45:39.197Z,99659.13
2022-12-19T02:56:00.574Z,99662.31
2022-12-19T03:06:14.327Z,99647.78
2022-12-19T03:16:15.986Z,99639.38
2022-12-19T03:26:22.033Z,99646.72
2022-12-19T03:36:34.776Z,99657.41
2022-12-19T03:46:38.898Z,99636.84
2022-12-19T03:56:49.727Z,99604.63
2022-12-19T04:06:52.189Z,99614.66
2022-12-19T04:17:06.420Z,99593.31
2022-12-19T04:27:08.020Z,99586.78
2022-12-19T04:37:09.880Z,99599.50
2022-12-19T04:47:12.029Z,99605.19
2022-12-19T04:57:14.579Z,99610.50
2022-12-19T05:07:18.887Z,99593.81
2022-12-19T05:17:20.433Z,99596.31
2022-12-19T05:27:21.877Z,99598.94
2022-12-19T05:37:23.275Z,99601.47
2022-12-19T05:47:25.067Z,99593.94
2022-12-19T05:57:26.459Z,99592.72
2022-12-19T06:07:27.910Z,99611.59
2022-12-19T06:17:29.402Z,99606.09
2022-12-19T06:27:30.800Z,99597.19
2022-12-19T06:37:32.200Z,99588.31
2022-12-19T06:47:33.669Z,99600.97
2022-12-19T06:57:35.073Z,99600.44
2022-12-19T07:07:36.585Z,99614.97
2022-12-19T07:17:38.009Z,99627.34
2022-12-19T07:27:42.730Z,99623.16
2022-12-19T07:37:44.514Z,99617.63
2022-12-19T07:47:48.367Z,99633.56
2022-12-19T07:57:49.851Z,99618.28
2022-12-19T08:07:54.238Z,99613.44
2022-12-19T08:17:55.785Z,99623.25
2022-12-19T08:27:57.295Z,99602.50
2022-12-19T08:37:58.764Z,99612.69
2022-12-19T08:48:00.153Z,99625.72
2022-12-19T08:58:01.648Z,99624.34
2022-12-19T09:08:03.379Z,99624.81
2022-12-19T09:18:05.213Z,99617.94
2022-12-19T09:38:29.143Z,99584.09
2022-12-19T09:48:32.822Z,99589.06
2022-12-19T09:58:54.405Z,99589.06
2022-12-19T10:11:07.313Z,99572.19
2022-12-19T10:19:23.185Z,99587.25
2022-12-19T10:29:46.507Z,99575.53
2022-12-19T10:40:24.459Z,99561.28
2022-12-19T10:50:30.561Z,99561.75
2022-12-19T11:00:33.187Z,99557.53
2022-12-19T11:12:53.820Z,99567.06
2022-12-19T11:29:26.396Z,99570.38
2022-12-19T11:42:30.528Z,99578.19
2022-12-19T11:53:03.413Z,99566.47
2022-12-19T12:03:20.363Z,99573.09
2022-12-19T12:23:14.954Z,99565.72
2022-12-19T12:31:46.049Z,99536.91
2022-12-19T12:45:49.934Z,99521.41
2022-12-19T12:55:51.637Z,99527.03
2022-12-19T13:05:54.941Z,99514.28
2022-12-19T13:15:56.466Z,99507.44
2022-12-19T13:25:57.955Z,99494.97
2022-12-19T13:39:01.760Z,99503.28
2022-12-19T13:46:27.929Z,99495.81
2022-12-19T13:56:29.969Z,99491.09
2022-12-19T14:06:46.635Z,99486.00
2022-12-19T14:16:48.084Z,99476.53
2022-12-19T14:28:19.655Z,99455.38
2022-12-19T14:39:20.407Z,99460.31
2022-12-19T14:51:09.061Z,99467.91
2022-12-19T14:58:53.567Z,99470.63
2022-12-19T15:09:50.595Z,99454.63
2022-12-19T15:19:01.074Z,99440.63
2022-12-19T15:29:02.619Z,99425.47
2022-12-19T15:39:04.318Z,99428.66
2022-12-19T15:49:05.856Z,99410.66
2022-12-19T15:59:17.085Z,99402.50
2022-12-19T16:09:20.876Z,99403.88
2022-12-19T16:19:22.119Z,99416.75
2022-12-19T16:29:25.841Z,99410.09
2022-12-19T16:39:27.254Z,99418.13
2022-12-19T16:49:28.761Z,99412.25
2022-12-19T16:59:35.909Z,99432.88
2022-12-19T17:09:37.396Z,99440.97
2022-12-19T17:19:39.063Z,99442.25
2022-12-19T17:29:40.622Z,99427.47
2022-12-19T17:39:42.141Z,99434.25
2022-12-19T17:49:43.652Z,99431.34
2022-12-19T17:59:46.474Z,99429.59
2022-12-19T18:09:48.105Z,99434.88
2022-12-19T18:19:50.043Z,99432.97
2022-12-19T18:29:51.585Z,99414.16
2022-12-19T18:39:55.428Z,99424.41
2022-12-19T18:49:56.923Z,99430.47
2022-12-19T18:59:58.473Z,99440.91
2022-12-19T19:09:59.869Z,99431.09
2022-12-19T19:20:01.612Z,99438.19
2022-12-19T19:30:04.174Z,99453.94
2022-12-19T19:40:06.253Z,99456.50
2022-12-19T19:50:08.194Z,99457.88
2022-12-19T20:00:10.063Z,99446.88
2022-12-19T20:10:11.634Z,99465.25
2022-12-19T20:20:13.151Z,99467.66
2022-12-19T20:30:14.671Z,99472.53
2022-12-19T20:40:16.403Z,99455.97
2022-12-19T20:50:17.867Z,99463.53
2022-12-19T21:00:19.740Z,99455.97
2022-12-19T21:10:21.178Z,99462.59
2022-12-19T21:20:22.714Z,99469.91
2022-12-19T21:30:24.208Z,99473.63
2022-12-19T21:40:25.692Z,99467.69
2022-12-19T21:50:27.086Z,99465.59
2022-12-19T22:00:28.504Z,99442.22
2022-12-19T22:10:29.942Z,99438.63
2022-12-19T22:20:31.403Z,99433.19
2022-12-19T22:30:34.763Z,99423.25
2022-12-19T22:40:36.616Z,99419.81
2022-12-19T22:50:44.006Z,99433.41
2022-12-19T23:00:45.708Z,99440.31
2022-12-19T23:10:51.420Z,99432.19
2022-12-19T23:21:09.787Z,99432.94
2022-12-19T23:31:13.680Z,99400.00
2022-12-19T23:41:15.601Z,99394.38
2022-12-19T23:51:18.490Z,99371.00
